Station Historical Data
Daily Summary for November 28, 2017 Units:  Metric    English   Both
« Previous Day
Next Day »
Daily Weekly Monthly Yearly Custom
  High: Low: Average:
Temperature: 18.3 °C 2.8 °C 9.3 °C
Dew Point: 5.8 °C -0.9 °C 1.8 °C
Humidity: 81% 31% 62%
Wind Speed: 7.4km/h 0km/h 1.3km/h
Wind Gust: 7.4km/h - -
Wind- - WNW
Pressure: 1028.7 hPa 1024.9 hPa -
Precipitation: 0 mm    
Historical Graphs
 
 
Tabular Data for November 28, 2017
Time Temperature Dew Point Pressure Wind Wind Speed Wind Gust Humidity Rainfall Rate (Hourly) Conditions
00:01 5.4 °C 1.1 °C 1025.3 hPa Calm     74% 0 mm CLR
00:06 5.2 °C 1.1 °C 1025.3 hPa Calm     75% 0 mm CLR
00:12 5.1 °C 1 °C 1025.3 hPa Calm     75% 0 mm CLR
00:17 4.9 °C 1.2 °C 1025.3 hPa Calm     77% 0 mm CLR
00:22 4.9 °C 1.2 °C 1025.3 hPa Calm     77% 0 mm CLR
00:27 4.8 °C 0.9 °C 1025.3 hPa Calm     76% 0 mm CLR
00:33 4.8 °C 0.7 °C 1024.9 hPa Calm     75% 0 mm CLR
00:38 4.8 °C 0.6 °C 1024.9 hPa Calm     74% 0 mm CLR
00:43 5 °C 0.4 °C 1024.9 hPa Calm     72% 0 mm CLR
00:48 5.3 °C 0.3 °C 1024.9 hPa Calm     70% 0 mm CLR
00:53 5.6 °C 0.1 °C 1024.9 hPa Calm     68% 0 mm CLR
00:58 5.7 °C 0.1 °C 1024.9 hPa Calm     67% 0 mm CLR
01:03 5.8 °C 0.2 °C 1024.9 hPa Calm     67% 0 mm CLR
01:08 5.8 °C 0.1 °C 1024.9 hPa Calm     67% 0 mm CLR
01:13 5.7 °C 0.2 °C 1024.9 hPa Calm     68% 0 mm CLR
01:18 5.6 °C 0.2 °C 1024.9 hPa Calm     68% 0 mm CLR
01:23 5.6 °C 0.1 °C 1024.9 hPa Calm     68% 0 mm CLR
01:28 5.5 °C 0.1 °C 1024.9 hPa Calm     68% 0 mm CLR
01:33 5.4 °C 0 °C 1024.9 hPa Calm     68% 0 mm CLR
01:39 5.4 °C -0.1 °C 1024.9 hPa Calm     68% 0 mm CLR
01:44 5.5 °C 0.1 °C 1024.9 hPa Calm     68% 0 mm CLR
01:49 5.6 °C -0.1 °C 1024.9 hPa Calm     67% 0 mm CLR
01:54 5.7 °C 0 °C 1024.9 hPa Calm     67% 0 mm CLR
01:59 5.6 °C -0.1 °C 1024.9 hPa Calm     67% 0 mm CLR
02:04 5.4 °C 0 °C 1024.9 hPa Calm     68% 0 mm CLR
02:09 5.6 °C 0.1 °C 1024.9 hPa Calm     68% 0 mm CLR
02:14 5.6 °C -0.1 °C 1024.9 hPa Calm     67% 0 mm CLR
02:19 5.7 °C 0 °C 1024.9 hPa Calm     67% 0 mm CLR
02:24 5.6 °C -0.1 °C 1025.3 hPa Calm     67% 0 mm CLR
02:29 5.6 °C 0.2 °C 1025.3 hPa Calm     68% 0 mm CLR
02:34 5.5 °C 0.4 °C 1025.3 hPa Calm     70% 0 mm CLR
02:39 5.4 °C 0.3 °C 1025.3 hPa Calm     70% 0 mm CLR
02:44 5.3 °C 0.4 °C 1025.3 hPa Calm     71% 0 mm CLR
02:46 5.2 °C 0.6 °C 1025.3 hPa Calm     72% 0 mm CLR
02:51 5.1 °C 0.6 °C 1025.3 hPa Calm     73% 0 mm CLR
02:56 4.9 °C 0.7 °C 1025.3 hPa Calm     74% 0 mm CLR
02:57 4.9 °C 0.7 °C 1025.3 hPa Calm     74% 0 mm CLR
03:02 4.8 °C 0.6 °C 1025.6 hPa Calm     74% 0 mm CLR
03:07 4.6 °C 0.5 °C 1025.6 hPa Calm     75% 0 mm CLR
03:12 4.8 °C 0.3 °C 1025.6 hPa Calm     73% 0 mm CLR
03:17 4.8 °C 0.6 °C 1025.3 hPa Calm     74% 0 mm CLR
03:22 4.6 °C 0.4 °C 1025.3 hPa Calm     74% 0 mm CLR
03:27 4.7 °C 0.2 °C 1025.6 hPa Calm     73% 0 mm CLR
03:32 4.9 °C 0.4 °C 1025.6 hPa Calm     73% 0 mm CLR
03:37 4.8 °C 0.7 °C 1025.3 hPa Calm     75% 0 mm CLR
03:42 4.6 °C 0.7 °C 1025.3 hPa Calm     76% 0 mm CLR
03:48 4.3 °C 0.4 °C 1025.3 hPa Calm     76% 0 mm CLR
03:53 4.4 °C 0.5 °C 1025.3 hPa Calm     76% 0 mm CLR
03:58 4.4 °C 0.5 °C 1025.3 hPa Calm     76% 0 mm CLR
04:03 4.2 °C -0.2 °C 1025.3 hPa Calm     73% 0 mm CLR
04:08 4.2 °C -0.2 °C 1025.3 hPa Calm     73% 0 mm CLR
04:13 4.2 °C -0.2 °C 1025.6 hPa Calm     73% 0 mm CLR
04:18 4.2 °C -0.4 °C 1025.6 hPa Calm     72% 0 mm CLR
04:23 4.2 °C -0.2 °C 1025.6 hPa Calm     73% 0 mm CLR
04:28 4.2 °C -0.4 °C 1025.6 hPa Calm     72% 0 mm CLR
04:33 4.1 °C -0.6 °C 1025.6 hPa Calm     72% 0 mm CLR
04:38 4.1 °C -0.5 °C 1025.6 hPa Calm     72% 0 mm CLR
04:43 4.1 °C -0.5 °C 1025.6 hPa Calm     72% 0 mm CLR
04:48 4.1 °C -0.6 °C 1025.6 hPa Calm     72% 0 mm CLR
04:54 4 °C -0.6 °C 1026 hPa Calm     72% 0 mm CLR
04:59 4.1 °C -0.7 °C 1025.6 hPa Calm     71% 0 mm CLR
05:04 4.1 °C -0.3 °C 1026 hPa Calm     73% 0 mm CLR
05:09 3.9 °C -0.4 °C 1026 hPa Calm     73% 0 mm CLR
05:14 3.8 °C -0.4 °C 1026 hPa Calm     74% 0 mm CLR
05:19 3.8 °C -0.2 °C 1026 hPa Calm     75% 0 mm CLR
05:24 3.9 °C -0.4 °C 1026 hPa Calm     73% 0 mm CLR
05:29 4.1 °C -0.6 °C 1026 hPa Calm     72% 0 mm CLR
05:34 3.9 °C -0.1 °C 1026 hPa Calm     75% 0 mm CLR
05:35 3.9 °C -0.1 °C 1026 hPa Calm     75% 0 mm CLR
05:40 3.8 °C -0.2 °C 1026.3 hPa Calm     75% 0 mm CLR
05:45 3.6 °C -0.2 °C 1026.3 hPa Calm     76% 0 mm CLR
05:50 3.5 °C 0 °C 1026.3 hPa Calm     78% 0 mm CLR
05:55 3.3 °C 0.1 °C 1026.3 hPa Calm     79% 0 mm CLR
06:00 3.2 °C -0.1 °C 1026.3 hPa Calm     79% 0 mm CLR
06:05 3.3 °C -0.4 °C 1026.3 hPa Calm     77% 0 mm CLR
06:10 3.3 °C -0.4 °C 1026.3 hPa Calm     77% 0 mm CLR
06:16 3.3 °C -0.9 °C 1026.3 hPa Calm     74% 0 mm CLR
06:21 3.4 °C -0.6 °C 1026.3 hPa Calm     75% 0 mm CLR
06:26 3.4 °C -0.4 °C 1026.3 hPa Calm     76% 0 mm CLR
06:31 3.3 °C -0.5 °C 1026.6 hPa Calm     76% 0 mm CLR
06:36 3.4 °C -0.4 °C 1026.6 hPa Calm     76% 0 mm CLR
06:41 3.5 °C -0.5 °C 1026.6 hPa Calm     75% 0 mm CLR
06:46 3.4 °C -0.4 °C 1027 hPa Calm     76% 0 mm CLR
06:51 3.3 °C -0.4 °C 1027 hPa Calm     77% 0 mm CLR
06:56 3.1 °C -0.3 °C 1027 hPa Calm     78% 0 mm CLR
07:01 2.9 °C -0.3 °C 1027 hPa Calm     79% 0 mm CLR
07:06 2.9 °C -0.4 °C 1027 hPa Calm     79% 0 mm CLR
07:11 2.9 °C -0.9 °C 1027.3 hPa Calm     76% 0 mm CLR
07:22 3.4 °C -0.4 °C 1027.3 hPa Calm     76% 0 mm CLR
07:27 3.3 °C -0.3 °C 1027.3 hPa Calm     77% 0 mm CLR
07:37 3.1 °C -0.4 °C 1027.7 hPa Calm     78% 0 mm CLR
07:47 2.9 °C -0.2 °C 1027.7 hPa Calm     80% 0 mm CLR
07:57 2.8 °C -0.2 °C 1027.7 hPa Calm     81% 0 mm CLR
08:02 2.8 °C -0.2 °C 1027.7 hPa Calm     81% 0 mm FEW
08:12 3.1 °C -0.2 °C 1028 hPa Calm     79% 0 mm FEW
08:17 3.3 °C -0.2 °C 1028 hPa Calm     78% 0 mm FEW
08:23 4.1 °C 0 °C 1028 hPa Calm     75% 0 mm FEW
08:28 4.6 °C 0.1 °C 1028 hPa Calm     73% 0 mm FEW
08:33 5.1 °C 0.2 °C 1028 hPa Calm     71% 0 mm FEW
08:38 5.5 °C 0.4 °C 1028 hPa WNW 1.9 km/h   70% 0 mm FEW
08:43 5.9 °C 0.5 °C 1028 hPa WNW 1.9 km/h 1.9 km/h 68% 0 mm FEW
08:53 6.6 °C 0.7 °C 1028.3 hPa WNW 1.9 km/h   66% 0 mm FEW
09:03 7.1 °C 0.6 °C 1028.3 hPa West 1.9 km/h 1.9 km/h 63% 0 mm FEW
09:13 7.7 °C 0.6 °C 1028.3 hPa West 1.9 km/h 1.9 km/h 61% 0 mm FEW
09:19 8.1 °C 1.1 °C 1028.3 hPa West 1.9 km/h 1.9 km/h 61% 0 mm FEW
09:24 8.4 °C 1.1 °C 1028.3 hPa West 1.9 km/h 1.9 km/h 60% 0 mm FEW
09:34 8.9 °C 1.1 °C 1028.7 hPa West 1.9 km/h 1.9 km/h 58% 0 mm FEW
09:39 9.1 °C 0.8 °C 1028.3 hPa West 3.7 km/h 3.7 km/h 56% 0 mm FEW
09:44 9.3 °C 0.7 °C 1028.7 hPa WNW 3.7 km/h 3.7 km/h 55% 0 mm FEW
09:49 9.6 °C 0.9 °C 1028.7 hPa West 3.7 km/h 3.7 km/h 55% 0 mm FEW
09:59 9.9 °C 0.6 °C 1028.7 hPa West 7.4 km/h 7.4 km/h 52% 0 mm FEW
10:04 10.1 °C 0.4 °C 1028.7 hPa West 7.4 km/h 7.4 km/h 51% 0 mm FEW
10:09 10.3 °C 0.8 °C 1028.7 hPa West 7.4 km/h   52% 0 mm FEW
10:20 11.4 °C 1.3 °C 1028.7 hPa Calm   3.2 km/h 50% 0 mm FEW
10:25 11.9 °C 1.6 °C 1028.7 hPa Calm   3.2 km/h 49% 0 mm FEW
10:30 12.6 °C 1.6 °C 1028.7 hPa WNW 3.7 km/h 3.7 km/h 47% 0 mm FEW
10:35 12.8 °C 0.8 °C 1028.7 hPa WNW 3.7 km/h 3.7 km/h 44% 0 mm FEW
10:40 12.8 °C 1.2 °C 1028.7 hPa West 5.6 km/h   45% 0 mm FEW
10:45 12.9 °C 0.9 °C 1028.7 hPa West 7.4 km/h 7.4 km/h 44% 0 mm FEW
10:50 13.2 °C 1.2 °C 1028.3 hPa West 7.4 km/h 7.4 km/h 44% 0 mm FEW
10:55 13.4 °C 0.4 °C 1028.3 hPa West 5.6 km/h 5.6 km/h 41% 0 mm FEW
11:00 13.5 °C 0.5 °C 1028.7 hPa WNW 5.6 km/h 5.6 km/h 41% 0 mm FEW
11:05 13.7 °C 0.7 °C 1028.7 hPa WNW 5.6 km/h   41% 0 mm FEW
11:10 13.9 °C 0.5 °C 1028.7 hPa WNW 5.6 km/h 5.6 km/h 40% 0 mm FEW
11:16 14.1 °C 1 °C 1028.3 hPa WNW 5.6 km/h   41% 0 mm FEW
11:26 14.4 °C 0.6 °C 1028.3 hPa WNW 3.7 km/h 3.7 km/h 39% 0 mm FEW
11:36 14.8 °C 0.6 °C 1028 hPa NW 5.6 km/h   38% 0 mm FEW
11:41 14.9 °C 0 °C 1028 hPa WNW 5.6 km/h 5.6 km/h 36% 0 mm FEW
11:46 15.2 °C 0.2 °C 1028 hPa WNW 5.6 km/h 5.6 km/h 36% 0 mm FEW
11:51 15.2 °C -0.2 °C 1028 hPa WNW 5.6 km/h 5.6 km/h 35% 0 mm FEW
11:56 15.3 °C -0.5 °C 1028 hPa West 7.4 km/h 7.4 km/h 34% 0 mm FEW
12:01 15.4 °C 0 °C 1028 hPa West 7.4 km/h 7.4 km/h 35% 0 mm FEW
12:06 15.5 °C 0.1 °C 1027.7 hPa WNW 7.4 km/h 7.4 km/h 35% 0 mm FEW
12:11 15.4 °C -0.4 °C 1027.7 hPa West 7.4 km/h 7.4 km/h 34% 0 mm FEW
12:16 15.5 °C -0.3 °C 1027.7 hPa West 7.4 km/h 7.4 km/h 34% 0 mm FEW
12:22 15.7 °C 0.2 °C 1027.7 hPa WNW 7.4 km/h   35% 0 mm FEW
12:27 15.9 °C -0.4 °C 1027.7 hPa WNW 7.4 km/h 7.4 km/h 33% 0 mm FEW
12:42 16.6 °C -0.2 °C 1027.3 hPa NW 7.4 km/h 7.4 km/h 32% 0 mm FEW
12:47 16.7 °C -0.1 °C 1027.3 hPa NW 7.4 km/h 7.4 km/h 32% 0 mm FEW
12:52 16.7 °C 0.3 °C 1027.3 hPa WNW 7.4 km/h 7.4 km/h 33% 0 mm FEW
12:57 17.1 °C 0.2 °C 1027.3 hPa WNW 3.7 km/h 3.7 km/h 32% 0 mm FEW
13:02 17.1 °C -0.2 °C 1027 hPa WNW 3.7 km/h 3.7 km/h 31% 0 mm FEW
13:07 17.3 °C 0.4 °C 1027 hPa NW 3.7 km/h 3.7 km/h 32% 0 mm FEW
13:12 17.3 °C 0.4 °C 1027 hPa WNW 3.7 km/h   32% 0 mm FEW
13:23 17.6 °C 0.7 °C 1027 hPa West 1.9 km/h 1.9 km/h 32% 0 mm FEW
13:28 17.5 °C 0.6 °C 1027 hPa West 5.6 km/h 5.6 km/h 32% 0 mm FEW
13:33 17.4 °C 0.5 °C 1027 hPa WNW 5.6 km/h 5.6 km/h 32% 0 mm FEW
13:43 17.3 °C 0 °C 1026.6 hPa NNW 1.9 km/h   31% 0 mm FEW
13:48 17.2 °C 0.7 °C 1026.6 hPa NNW 7.4 km/h   33% 0 mm FEW
13:58 17.2 °C 0.7 °C 1026.6 hPa NW 3.7 km/h 3.7 km/h 33% 0 mm FEW
14:03 17.2 °C 1.2 °C 1026.6 hPa NW 3.7 km/h   34% 0 mm FEW
14:08 17.2 °C 1.2 °C 1026.3 hPa NW 3.7 km/h   34% 0 mm FEW
14:18 17.3 °C 1.7 °C 1026.3 hPa West 1.9 km/h 1.9 km/h 35% 0 mm FEW
14:23 17.3 °C 1.7 °C 1026.3 hPa WNW 1.9 km/h   35% 0 mm FEW
14:39 17.8 °C 2.5 °C 1026.3 hPa WNW 3.7 km/h 3.7 km/h 36% 0 mm FEW
14:49 18 °C 3.1 °C 1026 hPa NNW 3.7 km/h 3.7 km/h 37% 0 mm FEW
14:54 18 °C 3.8 °C 1026 hPa WNW 3.7 km/h 3.7 km/h 39% 0 mm FEW
14:59 18.2 °C 4.3 °C 1026 hPa WNW 3.7 km/h 3.7 km/h 40% 0 mm FEW
15:04 18.3 °C 4.1 °C 1026 hPa NNW 1.9 km/h 1.9 km/h 39% 0 mm FEW
15:19 17.8 °C 4 °C 1026 hPa NW 3.7 km/h 3.7 km/h 40% 0 mm FEW
15:24 17.8 °C 4.3 °C 1026 hPa WNW 3.7 km/h 3.7 km/h 41% 0 mm FEW
15:29 17.7 °C 4.6 °C 1026 hPa West 1.9 km/h   42% 0 mm FEW
15:40 17.5 °C 4.4 °C 1026 hPa Calm   1.6 km/h 42% 0 mm FEW
15:55 17.3 °C 4.9 °C 1026.3 hPa NNW 1.9 km/h   44% 0 mm FEW
16:00 17.2 °C 5.1 °C 1026.3 hPa NNW 1.9 km/h   45% 0 mm FEW
16:05 17.1 °C 4.7 °C 1026.3 hPa NNW 5.6 km/h 5.6 km/h 44% 0 mm CLR
16:10 17.1 °C 5 °C 1026.3 hPa NNW 5.6 km/h   45% 0 mm CLR
16:20 16.8 °C 5.1 °C 1026.3 hPa NNW 1.9 km/h 1.9 km/h 46% 0 mm CLR
16:25 16.7 °C 5.3 °C 1026.3 hPa NW 1.9 km/h   47% 0 mm CLR
16:36 16.4 °C 5.1 °C 1026.3 hPa West 1.9 km/h   47% 0 mm CLR
16:46 16.3 °C 5.2 °C 1026.3 hPa WNW 1.9 km/h   48% 0 mm CLR
16:56 15.9 °C 5.2 °C 1026.3 hPa Calm     49% 0 mm CLR
17:01 15.8 °C 5.4 °C 1026.3 hPa Calm     50% 0 mm CLR
17:11 15.3 °C 5.5 °C 1026.3 hPa Calm     52% 0 mm CLR
17:26 14.7 °C 5.8 °C 1026.3 hPa Calm     55% 0 mm CLR
17:31 14.6 °C 5.6 °C 1026.3 hPa Calm     55% 0 mm CLR
17:36 14.4 °C 5.7 °C 1026.6 hPa Calm     56% 0 mm CLR
17:41 14.2 °C 5.6 °C 1026.6 hPa Calm     56% 0 mm CLR
17:57 13.6 °C 5.7 °C 1026.6 hPa Calm     59% 0 mm CLR
18:02 13.2 °C 5.6 °C 1026.6 hPa Calm     60% 0 mm CLR
18:07 12.9 °C 5.6 °C 1026.6 hPa Calm     61% 0 mm CLR
18:10 12.7 °C 5.6 °C 1026.6 hPa Calm     62% 0 mm CLR
18:15 12.5 °C 5.7 °C 1026.6 hPa Calm     63% 0 mm CLR
18:21 12.4 °C 5.6 °C 1026.6 hPa Calm     63% 0 mm CLR
18:36 12.5 °C 5.7 °C 1027 hPa NNW 1.9 km/h   63% 0 mm CLR
18:38 12.4 °C 5.6 °C 1026.6 hPa NNW 1.9 km/h   63% 0 mm CLR
18:48 11.7 °C 5.6 °C 1027 hPa Calm     66% 0 mm CLR
18:53 11.6 °C 5.7 °C 1027 hPa Calm     67% 0 mm CLR
18:58 11.5 °C 5.6 °C 1027 hPa Calm     67% 0 mm CLR
19:03 11.5 °C 5.6 °C 1027 hPa Calm     67% 0 mm CLR
19:13 11.7 °C 5.6 °C 1027.3 hPa Calm     66% 0 mm CLR
19:19 11.8 °C 5.4 °C 1027.3 hPa Calm     65% 0 mm CLR
19:24 11.8 °C 5.4 °C 1027.3 hPa Calm     65% 0 mm CLR
19:29 11.7 °C 5.5 °C 1027.3 hPa Calm     66% 0 mm CLR
19:34 11.7 °C 5.6 °C 1027.3 hPa Calm     66% 0 mm CLR
19:39 11.6 °C 5.4 °C 1027.3 hPa Calm     66% 0 mm CLR
19:49 11.1 °C 5.4 °C 1027.3 hPa Calm     68% 0 mm CLR
19:54 10.9 °C 5.4 °C 1027.3 hPa Calm     69% 0 mm CLR
20:04 10.8 °C 5.3 °C 1027.3 hPa Calm     69% 0 mm CLR
20:15 10.5 °C 5.3 °C 1027.7 hPa Calm     70% 0 mm CLR
20:20 10.3 °C 5.2 °C 1027.7 hPa Calm     71% 0 mm CLR
20:25 10.1 °C 5.1 °C 1027.7 hPa Calm     71% 0 mm CLR
20:30 10 °C 5 °C 1027.7 hPa Calm     71% 0 mm CLR
20:35 10.2 °C 4.9 °C 1027.7 hPa Calm     70% 0 mm CLR
20:40 10.3 °C 5.1 °C 1027.7 hPa Calm     70% 0 mm CLR
20:45 10.2 °C 5 °C 1027.7 hPa Calm     70% 0 mm CLR
20:50 10.3 °C 5.1 °C 1027.7 hPa Calm     70% 0 mm CLR
21:00 10.1 °C 4.7 °C 1027.7 hPa Calm     69% 0 mm CLR
21:10 10.1 °C 4.6 °C 1027.3 hPa Calm     69% 0 mm CLR
21:15 9.8 °C 4.4 °C 1027.3 hPa Calm     69% 0 mm CLR
21:21 9.7 °C 4.3 °C 1027.3 hPa Calm     69% 0 mm CLR
21:26 9.6 °C 4.3 °C 1027.3 hPa Calm     70% 0 mm CLR
21:36 9.4 °C 4.2 °C 1027.3 hPa Calm     70% 0 mm CLR
21:46 9.3 °C 4.1 °C 1027.3 hPa Calm     70% 0 mm CLR
21:51 9.3 °C 4.1 °C 1027.3 hPa Calm     70% 0 mm CLR
21:56 9.7 °C 4.3 °C 1027.7 hPa Calm     69% 0 mm CLR
22:01 9.8 °C 4.2 °C 1027.7 hPa Calm     68% 0 mm CLR
22:06 9.7 °C 4.1 °C 1027.7 hPa Calm     68% 0 mm CLR
22:18 9.4 °C 4 °C 1027.7 hPa Calm     69% 0 mm CLR
22:20 9.4 °C 4 °C 1027.7 hPa Calm     69% 0 mm CLR
22:27 9.4 °C 3.8 °C 1027.7 hPa Calm     68% 0 mm CLR
22:29 9.3 °C 3.9 °C 1027.7 hPa Calm     69% 0 mm CLR
22:33 9.4 °C 4 °C 1027.7 hPa Calm     69% 0 mm CLR
22:34 9.4 °C 3.8 °C 1027.7 hPa Calm     68% 0 mm CLR
22:44 9.6 °C 4 °C 1027.7 hPa Calm     68% 0 mm CLR
22:49 9.6 °C 4 °C 1028 hPa Calm     68% 0 mm CLR
22:54 9.4 °C 4.1 °C 1028 hPa Calm     69% 0 mm CLR
22:59 9.2 °C 3.8 °C 1028 hPa Calm     69% 0 mm CLR
23:09 8.9 °C 3.9 °C 1028 hPa Calm     71% 0 mm CLR
23:20 8.5 °C 3.7 °C 1028 hPa Calm     72% 0 mm CLR
23:25 8.6 °C 3.6 °C 1028 hPa Calm     71% 0 mm CLR
23:35 8.5 °C 3.6 °C 1028 hPa Calm     71% 0 mm CLR
23:40 8.5 °C 3.6 °C 1028 hPa Calm     71% 0 mm CLR
23:50 8.4 °C 3.5 °C 1028 hPa Calm     71% 0 mm CLR
23:55 8.2 °C 3.4 °C 1028 hPa Calm     72% 0 mm CLR
Piedmont Bend
Compliments of Weather Underground - 2 mb